Time;durP1;ratioP1;P1;durP2;ratioP2;P2;SDS_P1;SDS_P2;PMS_P1;PMS_P2;Temp;Humidity;BMP_temperature;BMP_pressure;BME280_temperature;BME280_humidity;BME280_pressure;Samples;Min_cycle;Max_cycle;Signal;HPM_P1;HPM_P2
2022/01/13 00:02:06;;;;;;;12.00;6.65;;;;;;;;;;5010288;28;20027;-87
2022/01/13 00:04:32;;;;;;;11.48;7.00;;;;;;;;;;5010101;28;20038;-88
2022/01/13 00:06:58;;;;;;;10.85;6.47;;;;;;;;;;5008285;28;20403;-87
2022/01/13 00:09:24;;;;;;;19.58;8.13;;;;;;;;;;5007005;28;20081;-86
2022/01/13 00:11:51;;;;;;;11.77;7.05;;;;;;;;;;5008154;28;20030;-86
2022/01/13 00:24:51;;;;;;;13.57;6.45;;;;;;;;;;5008967;28;20474;-85
2022/01/13 00:27:18;;;;;;;14.85;7.78;;;;;;;;;;5008644;28;20030;-87
2022/01/13 00:29:45;;;;;;;14.52;7.97;;;;;;;;;;5009351;28;20034;-85
2022/01/13 00:32:13;;;;;;;16.30;8.38;;;;;;;;;;4991786;28;20042;-86
2022/01/13 00:34:39;;;;;;;19.83;8.75;;;;;;;;;;4990086;28;20030;-86
2022/01/13 00:37:05;;;;;;;21.27;10.02;;;;;;;;;;4989085;28;20057;-87
2022/01/13 00:39:31;;;;;;;16.92;9.18;;;;;;;;;;5004415;28;20026;-86
2022/01/13 00:41:57;;;;;;;18.20;10.07;;;;;;;;;;5003566;28;20041;-87
2022/01/13 00:44:23;;;;;;;20.98;10.43;;;;;;;;;;4999346;28;20026;-86
2022/01/13 00:46:56;;;;;;;19.17;9.68;;;;;;;;;;5002148;28;20057;-86
2022/01/13 00:49:22;;;;;;;18.98;10.27;;;;;;;;;;5002042;28;20031;-86
2022/01/13 00:51:48;;;;;;;15.70;8.90;;;;;;;;;;5002291;28;20023;-87
2022/01/13 00:54:14;;;;;;;16.80;9.55;;;;;;;;;;5002245;28;20033;-87
2022/01/13 00:56:40;;;;;;;23.58;11.07;;;;;;;;;;4999454;28;20068;-86
2022/01/13 00:59:09;;;;;;;24.38;11.23;;;;;;;;;;5000208;28;20074;-86
2022/01/13 01:01:35;;;;;;;25.73;10.95;;;;;;;;;;4999076;28;20058;-86
2022/01/13 01:04:03;;;;;;;24.23;11.95;;;;;;;;;;5000088;28;20030;-87
2022/01/13 01:06:29;;;;;;;21.00;11.35;;;;;;;;;;5000178;28;20040;-86
2022/01/13 01:08:55;;;;;;;19.42;9.95;;;;;;;;;;4998821;28;20470;-86
2022/01/13 01:11:25;;;;;;;19.48;10.98;;;;;;;;;;5004231;28;20684;-86
2022/01/13 01:13:52;;;;;;;21.02;11.07;;;;;;;;;;5001013;28;20249;-86
2022/01/13 01:16:18;;;;;;;18.35;10.52;;;;;;;;;;4997572;28;20113;-85
2022/01/13 01:29:14;;;;;;;18.42;9.00;;;;;;;;;;5003098;28;20045;-86
2022/01/13 01:31:46;;;;;;;15.43;8.45;;;;;;;;;;5000049;28;20424;-87
2022/01/13 01:36:38;;;;;;;20.83;9.10;;;;;;;;;;5004834;28;20046;-86
2022/01/13 01:39:06;;;;;;;20.33;8.85;;;;;;;;;;4999505;28;20028;-86
2022/01/13 01:41:35;;;;;;;18.08;8.95;;;;;;;;;;5002650;28;20098;-87
2022/01/13 01:44:06;;;;;;;21.20;10.20;;;;;;;;;;5002800;28;20040;-88
2022/01/13 01:46:31;;;;;;;;;;;;;;;;;;5003658;28;20104;-88
2022/01/13 01:48:58;;;;;;;21.52;8.85;;;;;;;;;;5002594;28;19910;-87
2022/01/13 01:51:24;;;;;;;19.75;10.10;;;;;;;;;;5001856;28;20019;-86
2022/01/13 01:53:50;;;;;;;22.27;10.60;;;;;;;;;;5006365;28;20026;-87
2022/01/13 01:56:16;;;;;;;20.15;9.57;;;;;;;;;;5003498;28;20386;-87
2022/01/13 01:58:42;;;;;;;16.58;9.15;;;;;;;;;;4999814;28;20034;-85
2022/01/13 02:01:08;;;;;;;21.55;10.77;;;;;;;;;;5009417;28;20034;-87
2022/01/13 02:03:34;;;;;;;18.35;8.45;;;;;;;;;;4998449;28;20034;-86
2022/01/13 02:06:00;;;;;;;21.83;9.60;;;;;;;;;;4996191;28;20022;-84
2022/01/13 02:08:26;;;;;;;18.48;8.80;;;;;;;;;;5001053;28;20037;-85
2022/01/13 02:10:52;;;;;;;22.75;10.32;;;;;;;;;;4996229;28;20381;-86
2022/01/13 02:13:22;;;;;;;21.70;11.68;;;;;;;;;;5009407;28;20045;-86
2022/01/13 02:18:15;;;;;;;26.10;11.35;;;;;;;;;;5002598;28;20027;-85
2022/01/13 02:20:45;;;;;;;20.20;10.38;;;;;;;;;;5002366;28;20497;-86
2022/01/13 02:23:11;;;;;;;21.05;10.25;;;;;;;;;;5003070;28;20050;-85
2022/01/13 02:25:37;;;;;;;19.85;8.10;;;;;;;;;;5003245;28;20097;-85
2022/01/13 02:28:03;;;;;;;15.88;8.25;;;;;;;;;;5018977;28;20018;-87
2022/01/13 02:30:29;;;;;;;16.35;7.88;;;;;;;;;;5019233;28;20038;-88
2022/01/13 02:32:55;;;;;;;16.92;9.05;;;;;;;;;;5019852;28;20033;-87
2022/01/13 02:35:21;;;;;;;18.88;9.98;;;;;;;;;;5018648;28;20159;-88
2022/01/13 02:37:47;;;;;;;15.82;8.82;;;;;;;;;;5017793;28;20038;-87
2022/01/13 02:40:13;;;;;;;17.30;9.15;;;;;;;;;;5019835;28;20014;-88
2022/01/13 02:42:39;;;;;;;17.63;9.57;;;;;;;;;;5019690;28;20065;-87
2022/01/13 02:45:15;;;;;;;23.05;8.90;;;;;;;;;;5018943;28;20030;-87
2022/01/13 02:50:07;;;;;;;18.05;9.32;;;;;;;;;;5019560;28;20089;-88
2022/01/13 02:52:33;;;;;;;17.48;9.00;;;;;;;;;;5019414;28;20034;-87
2022/01/13 02:54:59;;;;;;;21.08;11.32;;;;;;;;;;5019573;28;20022;-88
2022/01/13 02:57:26;;;;;;;19.30;9.13;;;;;;;;;;5018921;28;20022;-87
2022/01/13 02:59:51;;;;;;;21.17;9.85;;;;;;;;;;5019382;28;20053;-88
2022/01/13 03:02:18;;;;;;;22.60;10.90;;;;;;;;;;5018555;28;20074;-88
2022/01/13 03:04:47;;;;;;;18.70;8.82;;;;;;;;;;5019314;28;20034;-88
2022/01/13 03:07:13;;;;;;;23.15;11.05;;;;;;;;;;5018142;28;20035;-87
2022/01/13 03:09:39;;;;;;;19.00;10.27;;;;;;;;;;5019301;28;20014;-86
2022/01/13 03:12:06;;;;;;;15.98;9.15;;;;;;;;;;5019204;28;20037;-90
2022/01/13 03:14:32;;;;;;;21.45;9.50;;;;;;;;;;5019111;28;20022;-87
2022/01/13 03:16:58;;;;;;;19.42;9.70;;;;;;;;;;5018623;28;20034;-87
2022/01/13 03:19:24;;;;;;;16.65;8.80;;;;;;;;;;5019140;28;20057;-89
2022/01/13 03:21:50;;;;;;;20.42;9.32;;;;;;;;;;5019121;28;20038;-89
2022/01/13 03:24:16;;;;;;;20.65;10.35;;;;;;;;;;5019015;28;20074;-88
2022/01/13 03:26:44;;;;;;;24.13;10.75;;;;;;;;;;5017343;28;20034;-90
2022/01/13 03:31:36;;;;;;;23.77;10.07;;;;;;;;;;5018536;28;20038;-89
2022/01/13 03:34:03;;;;;;;22.08;11.05;;;;;;;;;;5018475;28;20082;-88
2022/01/13 03:36:29;;;;;;;23.55;11.80;;;;;;;;;;5017495;28;20018;-89
2022/01/13 03:38:55;;;;;;;26.48;11.80;;;;;;;;;;5017064;28;20018;-89
2022/01/13 03:41:21;;;;;;;26.67;13.48;;;;;;;;;;5018622;28;20022;-88
2022/01/13 03:43:51;;;;;;;24.88;11.88;;;;;;;;;;5017788;28;20019;-88
2022/01/13 03:46:17;;;;;;;27.85;11.82;;;;;;;;;;5017514;28;20026;-89
2022/01/13 03:48:43;;;;;;;32.60;12.00;;;;;;;;;;5018010;28;20038;-89
2022/01/13 03:51:09;;;;;;;31.00;13.27;;;;;;;;;;5018183;28;20026;-90
2022/01/13 03:53:35;;;;;;;24.48;10.45;;;;;;;;;;5018118;28;20014;-89
2022/01/13 03:56:20;;;;;;;27.08;12.88;;;;;;;;;;5017459;28;20049;-90
2022/01/13 03:58:46;;;;;;;28.15;12.52;;;;;;;;;;5016515;28;20015;-91
2022/01/13 04:01:37;;;;;;;34.90;12.93;;;;;;;;;;5017383;28;20121;-90
2022/01/13 04:04:04;;;;;;;31.10;12.43;;;;;;;;;;5017725;28;20018;-90
2022/01/13 04:06:37;;;;;;;34.33;12.50;;;;;;;;;;5016838;28;20018;-89
2022/01/13 04:09:08;;;;;;;24.75;12.63;;;;;;;;;;5012712;28;20045;-89
2022/01/13 04:11:34;;;;;;;30.42;12.98;;;;;;;;;;5008406;28;20423;-88
2022/01/13 04:14:04;;;;;;;29.45;13.57;;;;;;;;;;5008987;28;20027;-91
2022/01/13 04:16:33;;;;;;;29.17;13.80;;;;;;;;;;5011759;28;20022;-88
2022/01/13 04:19:04;;;;;;;33.35;13.43;;;;;;;;;;5014336;28;20014;-89
2022/01/13 04:21:31;;;;;;;38.80;13.23;;;;;;;;;;5011275;28;20025;-88
2022/01/13 04:23:57;;;;;;;27.80;13.20;;;;;;;;;;5015285;28;20041;-88
2022/01/13 04:26:28;;;;;;;34.88;13.20;;;;;;;;;;5014399;28;20038;-89
2022/01/13 04:29:16;;;;;;;32.53;13.73;;;;;;;;;;5013918;28;20556;-91
2022/01/13 04:31:44;;;;;;;32.65;14.20;;;;;;;;;;5011108;28;20152;-89
2022/01/13 04:34:10;;;;;;;36.63;13.80;;;;;;;;;;5011896;28;20070;-88
2022/01/13 04:36:36;;;;;;;28.73;13.57;;;;;;;;;;5010505;28;20022;-89
2022/01/13 04:39:03;;;;;;;37.13;14.77;;;;;;;;;;4997883;28;20034;-89
2022/01/13 04:41:35;;;;;;;34.40;12.88;;;;;;;;;;5000593;28;20027;-89
2022/01/13 04:44:03;;;;;;;34.92;14.45;;;;;;;;;;4996515;28;20112;-90
2022/01/13 04:46:29;;;;;;;30.42;13.73;;;;;;;;;;4995180;28;20039;-88
2022/01/13 04:48:55;;;;;;;32.92;14.02;;;;;;;;;;4999061;28;20030;-89
2022/01/13 04:51:20;;;;;;;33.10;14.02;;;;;;;;;;4996764;28;20023;-88
2022/01/13 04:53:47;;;;;;;31.27;14.48;;;;;;;;;;4999410;28;20038;-89
2022/01/13 04:56:25;;;;;;;35.58;15.10;;;;;;;;;;5014649;28;20060;-88
2022/01/13 04:58:51;;;;;;;34.60;14.05;;;;;;;;;;4999858;28;20026;-88
2022/01/13 05:01:17;;;;;;;36.63;14.52;;;;;;;;;;4997232;28;20114;-89
2022/01/13 05:03:43;;;;;;;39.55;15.10;;;;;;;;;;4979550;28;20204;-88
2022/01/13 05:06:09;;;;;;;34.95;13.55;;;;;;;;;;4982299;28;20037;-88
2022/01/13 05:08:35;;;;;;;35.88;14.70;;;;;;;;;;4997462;28;20023;-89
2022/01/13 05:11:01;;;;;;;30.15;13.98;;;;;;;;;;4997838;28;20050;-88
2022/01/13 05:13:27;;;;;;;36.47;15.55;;;;;;;;;;5000037;28;20053;-89
2022/01/13 05:15:55;;;;;;;43.83;14.50;;;;;;;;;;4998113;28;20131;-88
2022/01/13 05:20:58;;;;;;;37.53;15.13;;;;;;;;;;5001434;28;20033;-90
2022/01/13 05:23:24;;;;;;;38.80;15.10;;;;;;;;;;4998454;28;20069;-89
2022/01/13 05:25:50;;;;;;;40.58;15.02;;;;;;;;;;4998841;28;20054;-89
2022/01/13 05:28:16;;;;;;;62.38;15.82;;;;;;;;;;4996822;28;20034;-89
2022/01/13 05:30:43;;;;;;;36.75;15.68;;;;;;;;;;5000312;28;20034;-89
2022/01/13 05:33:09;;;;;;;40.55;15.20;;;;;;;;;;4997107;28;20023;-89
2022/01/13 05:35:36;;;;;;;44.58;15.73;;;;;;;;;;4999286;28;20030;-89
2022/01/13 05:38:03;;;;;;;39.55;14.30;;;;;;;;;;4999102;28;20117;-89
2022/01/13 05:40:29;;;;;;;34.58;15.50;;;;;;;;;;4998531;28;20434;-89
2022/01/13 05:42:55;;;;;;;51.28;17.08;;;;;;;;;;4998583;28;20070;-89
2022/01/13 05:45:28;;;;;;;36.80;16.02;;;;;;;;;;4997649;28;20030;-90
2022/01/13 05:47:54;;;;;;;35.13;13.95;;;;;;;;;;4997366;28;20034;-88
2022/01/13 05:50:20;;;;;;;33.42;14.32;;;;;;;;;;4998103;28;20441;-89
2022/01/13 05:52:47;;;;;;;34.38;14.25;;;;;;;;;;4999148;28;20713;-89
2022/01/13 05:55:13;;;;;;;42.47;14.68;;;;;;;;;;4996938;28;20398;-88
2022/01/13 05:57:39;;;;;;;30.70;15.05;;;;;;;;;;4997620;28;20032;-89
2022/01/13 06:00:06;;;;;;;32.47;14.65;;;;;;;;;;4998823;28;20094;-89
2022/01/13 06:02:34;;;;;;;34.05;15.00;;;;;;;;;;4998581;28;20034;-89
2022/01/13 06:05:00;;;;;;;29.45;14.15;;;;;;;;;;4999586;28;20022;-89
2022/01/13 06:07:26;;;;;;;38.38;14.90;;;;;;;;;;5004359;28;20093;-89
2022/01/13 06:09:52;;;;;;;44.60;16.02;;;;;;;;;;5008907;28;20114;-89
2022/01/13 06:12:21;;;;;;;34.00;15.32;;;;;;;;;;4997460;28;20042;-87
2022/01/13 06:14:47;;;;;;;45.17;14.95;;;;;;;;;;4999773;28;20033;-89
2022/01/13 06:17:13;;;;;;;36.67;14.73;;;;;;;;;;4999920;28;20022;-89
2022/01/13 06:19:39;;;;;;;38.15;14.20;;;;;;;;;;4997847;28;20033;-88
2022/01/13 06:22:05;;;;;;;34.63;14.90;;;;;;;;;;4996301;28;20026;-90
2022/01/13 06:24:31;;;;;;;31.75;14.85;;;;;;;;;;4995979;28;20028;-90
2022/01/13 06:26:57;;;;;;;39.38;15.32;;;;;;;;;;4998792;28;20031;-90
2022/01/13 06:29:23;;;;;;;40.17;15.15;;;;;;;;;;4998399;28;20038;-88
2022/01/13 06:31:49;;;;;;;34.83;13.02;;;;;;;;;;4998060;28;20038;-88
2022/01/13 06:34:15;;;;;;;48.30;14.40;;;;;;;;;;5006695;28;20088;-88
2022/01/13 06:36:41;;;;;;;50.55;14.35;;;;;;;;;;5007296;28;20031;-89
2022/01/13 06:39:07;;;;;;;35.10;15.20;;;;;;;;;;5001387;28;20058;-89
2022/01/13 06:41:38;;;;;;;43.50;15.38;;;;;;;;;;4999325;28;20355;-88
2022/01/13 06:44:05;;;;;;;33.78;13.15;;;;;;;;;;5000152;28;20048;-89
2022/01/13 06:46:31;;;;;;;41.00;13.95;;;;;;;;;;4975602;28;20042;-89
2022/01/13 06:48:57;;;;;;;34.83;14.55;;;;;;;;;;4985511;28;20030;-89
2022/01/13 06:51:23;;;;;;;63.45;15.30;;;;;;;;;;5001872;28;20034;-89
2022/01/13 06:53:49;;;;;;;34.72;14.27;;;;;;;;;;4998817;28;20027;-89
2022/01/13 06:56:15;;;;;;;47.00;15.82;;;;;;;;;;4999754;28;20026;-89
2022/01/13 06:58:44;;;;;;;29.50;13.57;;;;;;;;;;4995756;28;20058;-88
2022/01/13 07:01:10;;;;;;;43.78;14.68;;;;;;;;;;4994502;28;20030;-88
2022/01/13 07:03:37;;;;;;;32.38;13.68;;;;;;;;;;4997759;28;20037;-88
2022/01/13 07:06:03;;;;;;;35.60;14.05;;;;;;;;;;4996416;28;20092;-88
2022/01/13 07:08:29;;;;;;;32.70;13.25;;;;;;;;;;4995877;28;20027;-89
2022/01/13 07:10:55;;;;;;;45.30;14.40;;;;;;;;;;4996908;28;20069;-89
2022/01/13 07:13:21;;;;;;;41.97;14.32;;;;;;;;;;4994336;28;20433;-89
2022/01/13 07:15:47;;;;;;;39.83;14.50;;;;;;;;;;4996292;28;20026;-89
2022/01/13 07:18:13;;;;;;;30.73;13.18;;;;;;;;;;4993871;28;20450;-89
2022/01/13 07:20:42;;;;;;;27.92;12.60;;;;;;;;;;4993830;28;20121;-89
2022/01/13 07:23:08;;;;;;;33.67;13.07;;;;;;;;;;4995604;28;20026;-89
2022/01/13 07:25:34;;;;;;;32.75;14.23;;;;;;;;;;4995731;28;20054;-88
2022/01/13 07:28:00;;;;;;;40.50;14.23;;;;;;;;;;4993310;28;20026;-89
2022/01/13 07:30:26;;;;;;;31.83;13.35;;;;;;;;;;4995932;28;20034;-89
2022/01/13 07:32:52;;;;;;;43.60;14.18;;;;;;;;;;4992936;28;20030;-89
2022/01/13 07:35:18;;;;;;;32.15;13.82;;;;;;;;;;4994442;28;20418;-87
2022/01/13 07:37:44;;;;;;;29.95;13.43;;;;;;;;;;4981597;28;20026;-88
2022/01/13 07:43:22;;;;;;;36.83;13.10;;;;;;;;;;4982439;28;20165;-88
2022/01/13 07:45:49;;;;;;;27.65;11.95;;;;;;;;;;4993753;28;20076;-88
2022/01/13 07:48:15;;;;;;;27.90;12.40;;;;;;;;;;4993665;28;20099;-89
2022/01/13 07:50:41;;;;;;;30.83;13.40;;;;;;;;;;4995287;28;20018;-89
2022/01/13 07:53:07;;;;;;;41.47;13.75;;;;;;;;;;5003131;28;20483;-89
2022/01/13 07:55:33;;;;;;;33.47;13.07;;;;;;;;;;4999042;28;20110;-89
2022/01/13 07:57:59;;;;;;;55.35;14.57;;;;;;;;;;4997140;28;20554;-89
2022/01/13 08:00:25;;;;;;;37.55;14.18;;;;;;;;;;4993441;28;20058;-88
2022/01/13 08:02:51;;;;;;;30.88;13.32;;;;;;;;;;4994571;28;20106;-88
2022/01/13 08:05:17;;;;;;;33.50;13.93;;;;;;;;;;4995302;28;20026;-89
2022/01/13 08:07:43;;;;;;;30.35;14.02;;;;;;;;;;4995242;28;20481;-88
2022/01/13 08:10:10;;;;;;;30.65;13.50;;;;;;;;;;4996601;28;20027;-89
2022/01/13 08:12:37;;;;;;;42.75;15.57;;;;;;;;;;5007617;28;20065;-87
2022/01/13 08:15:03;;;;;;;31.38;12.40;;;;;;;;;;4993477;28;20036;-86
2022/01/13 08:20:14;;;;;;;28.42;11.70;;;;;;;;;;4994759;28;20041;-86
2022/01/13 08:22:52;;;;;;;33.90;12.82;;;;;;;;;;5006217;28;20018;-89
2022/01/13 08:25:20;;;;;;;29.27;12.32;;;;;;;;;;5015035;28;20030;-91
2022/01/13 08:27:46;;;;;;;25.55;11.77;;;;;;;;;;5004314;28;20074;-88
2022/01/13 08:30:12;;;;;;;29.05;12.98;;;;;;;;;;4995115;28;20367;-90
2022/01/13 08:32:38;;;;;;;24.27;11.52;;;;;;;;;;4993850;28;20382;-89
2022/01/13 08:35:05;;;;;;;20.67;11.40;;;;;;;;;;4998679;28;20458;-89
2022/01/13 08:37:32;;;;;;;24.80;11.93;;;;;;;;;;4992676;28;20038;-89
2022/01/13 08:39:59;;;;;;;24.13;12.43;;;;;;;;;;4995493;28;20046;-88
2022/01/13 08:45:24;;;;;;;18.80;10.30;;;;;;;;;;5006227;28;20044;-92
2022/01/13 08:47:50;;;;;;;17.17;10.27;;;;;;;;;;4994302;28;20038;-92
2022/01/13 08:50:16;;;;;;;18.67;10.65;;;;;;;;;;4993493;28;20031;-91
2022/01/13 08:52:44;;;;;;;17.88;10.07;;;;;;;;;;4997521;28;20034;-89
2022/01/13 08:55:19;;;;;;;17.02;9.80;;;;;;;;;;4998896;28;20049;-91
2022/01/13 08:57:45;;;;;;;17.38;10.85;;;;;;;;;;4994104;28;20037;-92
2022/01/13 09:03:57;;;;;;;20.65;10.80;;;;;;;;;;4953568;29;20106;-91
2022/01/13 09:06:23;;;;;;;17.65;10.55;;;;;;;;;;4997711;28;20033;-91
2022/01/13 09:08:49;;;;;;;19.58;10.70;;;;;;;;;;5001544;28;20038;-91
2022/01/13 09:14:28;;;;;;;19.80;10.65;;;;;;;;;;4997184;28;20030;-90
2022/01/13 09:16:54;;;;;;;18.95;11.18;;;;;;;;;;4993578;28;20142;-88
2022/01/13 09:22:24;;;;;;;17.50;10.98;;;;;;;;;;4993995;28;20029;-89
2022/01/13 09:27:57;;;;;;;18.50;9.95;;;;;;;;;;5059000;23;20053;-83
2022/01/13 09:30:23;;;;;;;18.40;10.23;;;;;;;;;;4969389;28;20042;-82
2022/01/13 09:32:49;;;;;;;17.95;9.85;;;;;;;;;;4975222;28;20055;-84
2022/01/13 09:35:15;;;;;;;14.98;9.10;;;;;;;;;;4976718;28;20019;-80
2022/01/13 09:37:41;;;;;;;15.82;8.70;;;;;;;;;;4976775;28;20434;-83
2022/01/13 09:40:09;;;;;;;14.88;9.27;;;;;;;;;;4977244;28;20031;-85
2022/01/13 09:42:35;;;;;;;14.98;9.77;;;;;;;;;;4977498;28;20502;-82
2022/01/13 09:45:02;;;;;;;14.93;10.00;;;;;;;;;;4979279;28;20027;-83
2022/01/13 09:47:29;;;;;;;15.07;9.90;;;;;;;;;;4976668;28;20053;-84
2022/01/13 09:49:55;;;;;;;11.98;8.88;;;;;;;;;;4980680;28;20022;-84
2022/01/13 09:52:22;;;;;;;12.75;9.23;;;;;;;;;;4979113;28;20018;-84
2022/01/13 09:54:51;;;;;;;10.68;8.20;;;;;;;;;;4986565;28;20019;-83
2022/01/13 09:57:17;;;;;;;13.07;8.82;;;;;;;;;;4997157;28;20018;-86
2022/01/13 09:59:43;;;;;;;11.27;8.48;;;;;;;;;;4979863;28;20035;-86
2022/01/13 10:02:09;;;;;;;12.52;9.13;;;;;;;;;;4981670;28;20558;-86
2022/01/13 10:04:47;;;;;;;14.85;10.60;;;;;;;;;;4981592;28;20031;-84
2022/01/13 10:07:17;;;;;;;11.80;9.27;;;;;;;;;;4979979;28;20023;-84
2022/01/13 10:09:56;;;;;;;15.95;10.32;;;;;;;;;;4983483;28;20506;-85
2022/01/13 10:12:34;;;;;;;14.85;9.48;;;;;;;;;;4980582;28;20487;-83
2022/01/13 10:17:44;;;;;;;15.50;10.25;;;;;;;;;;4980882;28;20077;-85
2022/01/13 10:20:11;;;;;;;15.93;9.85;;;;;;;;;;4981475;28;20538;-84
2022/01/13 10:22:37;;;;;;;16.88;10.05;;;;;;;;;;4969541;28;20044;-81
2022/01/13 10:25:03;;;;;;;15.32;9.85;;;;;;;;;;4965006;28;20023;-82
2022/01/13 10:27:30;;;;;;;15.98;10.68;;;;;;;;;;4978216;28;20587;-80
2022/01/13 10:29:57;;;;;;;18.23;10.75;;;;;;;;;;4975721;28;20398;-83
2022/01/13 10:32:24;;;;;;;16.85;10.98;;;;;;;;;;4972471;28;20114;-82
2022/01/13 10:34:52;;;;;;;17.00;11.95;;;;;;;;;;4962084;28;20503;-83
2022/01/13 10:37:28;;;;;;;19.65;13.23;;;;;;;;;;4973948;28;20033;-83
2022/01/13 10:40:02;;;;;;;22.40;15.57;;;;;;;;;;4980125;28;20039;-83
2022/01/13 10:45:04;;;;;;;20.70;14.30;;;;;;;;;;4971739;28;20027;-85
2022/01/13 10:47:30;;;;;;;21.58;14.00;;;;;;;;;;4964483;28;20078;-84
2022/01/13 10:50:00;;;;;;;19.65;14.13;;;;;;;;;;4978859;28;20030;-86
2022/01/13 10:52:27;;;;;;;19.50;14.43;;;;;;;;;;4975999;28;20034;-88
2022/01/13 10:54:55;;;;;;;22.42;15.48;;;;;;;;;;4974197;28;20050;-87
2022/01/13 10:57:23;;;;;;;20.77;14.48;;;;;;;;;;4975208;28;20027;-86
2022/01/13 10:59:49;;;;;;;21.15;14.57;;;;;;;;;;4973887;28;20039;-87
2022/01/13 11:02:15;;;;;;;18.92;13.40;;;;;;;;;;4975966;28;20062;-87
2022/01/13 11:04:41;;;;;;;18.42;12.95;;;;;;;;;;4977202;28;20041;-85
2022/01/13 11:07:18;;;;;;;23.05;15.32;;;;;;;;;;4993198;28;20015;-89
2022/01/13 11:09:52;;;;;;;19.88;14.02;;;;;;;;;;4980746;28;20046;-87
2022/01/13 11:12:27;;;;;;;21.48;14.00;;;;;;;;;;4974635;28;20030;-87
2022/01/13 11:14:59;;;;;;;18.42;13.50;;;;;;;;;;4976166;28;20033;-88
2022/01/13 11:17:25;;;;;;;16.63;11.40;;;;;;;;;;4975339;28;20022;-86
2022/01/13 11:19:52;;;;;;;19.75;12.80;;;;;;;;;;4975703;28;20061;-88
2022/01/13 11:22:18;;;;;;;19.30;13.00;;;;;;;;;;4976260;28;20049;-86
2022/01/13 11:24:44;;;;;;;20.30;13.10;;;;;;;;;;4974516;28;20035;-87
2022/01/13 11:27:11;;;;;;;18.88;13.85;;;;;;;;;;4974581;28;20034;-88
2022/01/13 11:29:37;;;;;;;20.90;13.70;;;;;;;;;;4975666;28;20030;-86
2022/01/13 11:32:03;;;;;;;20.15;12.88;;;;;;;;;;4975641;28;20076;-87
2022/01/13 11:34:29;;;;;;;17.55;12.43;;;;;;;;;;4975879;28;20103;-87
2022/01/13 11:36:55;;;;;;;18.83;13.13;;;;;;;;;;4975393;28;20114;-86
2022/01/13 11:39:36;;;;;;;22.85;13.82;;;;;;;;;;4973865;28;20480;-87
2022/01/13 11:42:04;;;;;;;18.35;12.38;;;;;;;;;;4999114;28;20022;-88
2022/01/13 11:44:30;;;;;;;19.00;13.02;;;;;;;;;;4991578;28;20141;-86
2022/01/13 11:46:56;;;;;;;19.98;13.10;;;;;;;;;;4974211;28;20033;-87
2022/01/13 11:49:38;;;;;;;22.48;12.05;;;;;;;;;;4975660;28;20027;-86
2022/01/13 11:52:15;;;;;;;16.27;11.60;;;;;;;;;;4974946;28;20049;-86
2022/01/13 11:54:42;;;;;;;21.63;13.13;;;;;;;;;;4991056;28;20046;-87
2022/01/13 11:57:11;;;;;;;20.25;13.60;;;;;;;;;;4987284;28;20031;-87
2022/01/13 11:59:37;;;;;;;19.25;12.43;;;;;;;;;;4967697;28;20030;-88
2022/01/13 12:02:22;;;;;;;20.88;12.65;;;;;;;;;;4957933;28;20050;-87
2022/01/13 12:05:09;;;;;;;19.60;12.60;;;;;;;;;;4960781;29;20019;-87
2022/01/13 12:07:42;;;;;;;17.92;11.88;;;;;;;;;;4962148;28;20103;-87
2022/01/13 12:10:08;;;;;;;22.02;12.30;;;;;;;;;;4979141;28;20151;-86
2022/01/13 12:12:35;;;;;;;20.48;11.73;;;;;;;;;;4978300;28;20045;-87
2022/01/13 12:15:30;;;;;;;21.90;12.88;;;;;;;;;;4979262;28;20046;-87
2022/01/13 12:18:05;;;;;;;20.70;12.15;;;;;;;;;;4973617;28;20035;-86
2022/01/13 12:20:57;;;;;;;19.55;11.90;;;;;;;;;;4979472;28;20078;-86
2022/01/13 12:23:43;;;;;;;20.40;12.07;;;;;;;;;;4979327;28;20023;-86
2022/01/13 12:26:27;;;;;;;21.10;12.38;;;;;;;;;;4980596;28;20446;-86
2022/01/13 12:29:12;;;;;;;26.33;13.60;;;;;;;;;;4982339;28;20062;-85
2022/01/13 12:31:57;;;;;;;23.25;12.50;;;;;;;;;;4992152;28;20027;-88
2022/01/13 12:34:29;;;;;;;23.60;12.95;;;;;;;;;;4969228;28;20055;-87
2022/01/13 12:37:00;;;;;;;24.02;13.90;;;;;;;;;;4980530;28;20034;-86
2022/01/13 12:39:27;;;;;;;27.63;13.52;;;;;;;;;;4983487;28;20047;-85
2022/01/13 12:42:00;;;;;;;23.08;13.38;;;;;;;;;;4983959;28;20030;-87
2022/01/13 12:47:13;;;;;;;23.00;12.27;;;;;;;;;;4984257;28;20053;-86
2022/01/13 12:49:42;;;;;;;22.17;12.88;;;;;;;;;;4985231;28;20023;-87
2022/01/13 12:52:08;;;;;;;25.95;13.07;;;;;;;;;;4983163;28;20098;-88
2022/01/13 12:54:34;;;;;;;21.65;12.55;;;;;;;;;;4983215;28;20027;-86
2022/01/13 12:57:05;;;;;;;28.55;13.93;;;;;;;;;;4981720;28;20023;-86
2022/01/13 12:59:32;;;;;;;24.42;13.52;;;;;;;;;;4981537;28;20053;-87
2022/01/13 13:01:58;;;;;;;26.83;14.52;;;;;;;;;;4982333;28;20034;-87
2022/01/13 13:04:24;;;;;;;26.95;14.07;;;;;;;;;;4981563;28;20478;-88
2022/01/13 13:06:51;;;;;;;25.15;13.50;;;;;;;;;;4992063;28;20030;-88
2022/01/13 13:09:19;;;;;;;26.75;14.95;;;;;;;;;;4978526;28;20015;-88
2022/01/13 13:11:48;;;;;;;31.92;15.90;;;;;;;;;;4977269;28;20039;-89
2022/01/13 13:14:22;;;;;;;26.13;14.48;;;;;;;;;;4977325;28;20019;-88
2022/01/13 13:16:50;;;;;;;27.38;14.80;;;;;;;;;;4981469;28;20081;-85
2022/01/13 13:19:17;;;;;;;28.77;14.27;;;;;;;;;;4983794;28;20027;-87
2022/01/13 13:21:49;;;;;;;28.40;15.23;;;;;;;;;;4994785;28;20035;-83
2022/01/13 13:24:15;;;;;;;35.92;15.30;;;;;;;;;;4996649;28;20038;-85
2022/01/13 13:26:43;;;;;;;26.08;14.45;;;;;;;;;;4986525;28;20469;-86
2022/01/13 13:29:09;;;;;;;29.15;14.50;;;;;;;;;;4985317;28;20066;-86
2022/01/13 13:31:35;;;;;;;26.48;13.13;;;;;;;;;;4986169;28;20403;-86
2022/01/13 13:34:05;;;;;;;27.05;13.23;;;;;;;;;;4985523;28;20022;-86
2022/01/13 13:36:39;;;;;;;26.95;13.32;;;;;;;;;;4976367;28;20023;-85
2022/01/13 13:39:07;;;;;;;25.17;13.15;;;;;;;;;;4965730;28;20033;-85
2022/01/13 13:41:40;;;;;;;25.10;13.85;;;;;;;;;;4967475;28;20078;-85
2022/01/13 13:44:07;;;;;;;25.73;12.70;;;;;;;;;;4965322;29;20031;-86
2022/01/13 13:46:33;;;;;;;21.35;12.05;;;;;;;;;;4965034;29;20059;-85
2022/01/13 13:48:59;;;;;;;28.33;13.63;;;;;;;;;;4966769;28;20038;-86
2022/01/13 13:51:27;;;;;;;22.33;12.43;;;;;;;;;;4965054;29;20070;-84
2022/01/13 13:54:13;;;;;;;22.05;11.68;;;;;;;;;;4978750;28;20030;-85
2022/01/13 13:56:45;;;;;;;21.80;11.57;;;;;;;;;;4968895;29;20023;-86
2022/01/13 13:59:20;;;;;;;23.75;11.65;;;;;;;;;;4975092;28;20363;-86
2022/01/13 14:02:05;;;;;;;21.23;11.27;;;;;;;;;;4986926;28;20093;-86
2022/01/13 14:04:36;;;;;;;21.00;11.75;;;;;;;;;;4984056;28;20471;-86
2022/01/13 14:07:02;;;;;;;18.05;10.50;;;;;;;;;;4983326;28;20034;-86
2022/01/13 14:09:41;;;;;;;20.83;10.77;;;;;;;;;;4984803;28;20038;-85
2022/01/13 14:12:08;;;;;;;21.42;10.90;;;;;;;;;;4984819;28;20507;-86
2022/01/13 14:14:40;;;;;;;16.75;9.43;;;;;;;;;;4983725;28;20023;-84
2022/01/13 14:17:07;;;;;;;17.13;10.15;;;;;;;;;;4964776;28;20042;-85
2022/01/13 14:19:33;;;;;;;17.30;10.45;;;;;;;;;;4965539;29;20431;-86
2022/01/13 14:21:59;;;;;;;17.92;9.95;;;;;;;;;;4963401;29;20028;-86
2022/01/13 14:24:26;;;;;;;16.05;10.75;;;;;;;;;;4965607;29;20035;-84
2022/01/13 14:26:52;;;;;;;15.88;9.35;;;;;;;;;;4962798;29;20023;-84
2022/01/13 14:29:22;;;;;;;18.23;10.52;;;;;;;;;;4965200;28;20574;-85
2022/01/13 14:31:48;;;;;;;19.52;10.15;;;;;;;;;;4965265;28;20023;-85
2022/01/13 14:34:14;;;;;;;16.92;9.85;;;;;;;;;;4964115;29;20054;-85
2022/01/13 14:36:40;;;;;;;21.52;11.35;;;;;;;;;;4963334;29;20023;-84
2022/01/13 14:39:07;;;;;;;17.75;10.75;;;;;;;;;;4962651;28;20023;-85
2022/01/13 14:41:34;;;;;;;16.88;10.32;;;;;;;;;;4960753;29;20114;-86
2022/01/13 14:44:05;;;;;;;14.00;9.15;;;;;;;;;;4962571;29;20042;-86
2022/01/13 14:46:35;;;;;;;14.25;9.63;;;;;;;;;;4963192;29;20055;-87
2022/01/13 14:49:02;;;;;;;15.75;9.68;;;;;;;;;;4961629;28;20042;-87
2022/01/13 14:51:28;;;;;;;15.95;10.30;;;;;;;;;;4963254;28;20038;-83
2022/01/13 14:53:55;;;;;;;15.48;9.27;;;;;;;;;;4963736;29;20034;-83
2022/01/13 14:56:22;;;;;;;14.23;8.85;;;;;;;;;;4963260;29;20472;-86
2022/01/13 14:58:48;;;;;;;13.93;9.13;;;;;;;;;;4969389;28;20034;-84
2022/01/13 15:01:16;;;;;;;14.45;8.85;;;;;;;;;;4982002;28;20474;-87
2022/01/13 15:03:42;;;;;;;16.50;9.23;;;;;;;;;;4980617;28;20399;-86
2022/01/13 15:06:09;;;;;;;16.70;9.57;;;;;;;;;;4983157;28;20479;-85
2022/01/13 15:08:35;;;;;;;16.40;9.45;;;;;;;;;;4966482;28;20102;-85
2022/01/13 15:11:02;;;;;;;15.00;9.15;;;;;;;;;;4963384;29;20094;-84
2022/01/13 15:13:28;;;;;;;13.35;8.77;;;;;;;;;;4961745;29;20074;-83
2022/01/13 15:15:54;;;;;;;16.20;8.73;;;;;;;;;;4969008;28;20023;-85
2022/01/13 15:18:21;;;;;;;14.68;8.70;;;;;;;;;;4981577;28;20023;-85
2022/01/13 15:20:48;;;;;;;12.68;8.10;;;;;;;;;;4980035;28;20026;-85
2022/01/13 15:23:14;;;;;;;15.07;8.23;;;;;;;;;;4981449;28;20450;-85
2022/01/13 15:25:40;;;;;;;14.45;8.50;;;;;;;;;;4981760;28;20023;-85
2022/01/13 15:28:07;;;;;;;14.55;9.35;;;;;;;;;;4996879;23;20054;-86
2022/01/13 15:30:53;;;;;;;15.43;8.32;;;;;;;;;;4995525;28;20037;-87